Terminal Aerodrome Forecast
Issued by NWS Boise, ID

Home | Current Version | Previous Version | Text Only | Print | Product List | Glossary On
Versions: 1 2 3 4 5 6 7 8 9 10 11 12 13 14 15 16 17 18 19
000
FTUS45 KBOI 092335
TAFBNO
TAF
KBNO 092335Z 1000/1024 VRB05KT P6SM VCSH OVC040
      TEMPO 1000/1004 3SM -RA BR OVC020
     FM101500 VRB05KT P6SM OVC050=

USA.gov is the U.S. government's official web portal to all federal, state and local government web resources and services.